createdAt,value
2022-10-05T00:01:29.684Z,2.40
2022-10-05T00:04:17.252Z,2.50
2022-10-05T00:07:07.083Z,2.30
2022-10-05T00:09:35.271Z,2.30
2022-10-05T00:12:24.751Z,2.40
2022-10-05T00:15:00.701Z,2.40
2022-10-05T00:17:30.837Z,2.50
2022-10-05T00:19:59.217Z,2.50
2022-10-05T00:22:33.221Z,2.20
2022-10-05T00:25:14.819Z,2.50
2022-10-05T00:27:49.123Z,2.50
2022-10-05T00:30:20.923Z,2.70
2022-10-05T00:32:50.177Z,2.60
2022-10-05T00:35:19.446Z,2.50
2022-10-05T00:37:54.656Z,2.50
2022-10-05T00:40:46.544Z,2.70
2022-10-05T00:43:26.276Z,2.70
2022-10-05T00:46:13.350Z,2.60
2022-10-05T00:49:14.252Z,2.60
2022-10-05T00:52:20.782Z,2.50
2022-10-05T00:55:10.710Z,2.50
2022-10-05T00:57:59.413Z,2.50
2022-10-05T01:00:28.804Z,2.70
2022-10-05T01:03:04.727Z,2.70
2022-10-05T01:05:41.602Z,2.50
2022-10-05T01:08:38.637Z,3.00
2022-10-05T01:11:28.228Z,3.10
2022-10-05T01:14:20.878Z,2.70
2022-10-05T01:17:21.182Z,2.50
2022-10-05T01:20:22.338Z,3.00
2022-10-05T01:23:21.371Z,3.10
2022-10-05T01:26:07.898Z,3.00
2022-10-05T01:28:58.249Z,2.50
2022-10-05T01:31:45.788Z,2.70
2022-10-05T01:34:24.718Z,2.90
2022-10-05T01:37:34.485Z,2.80
2022-10-05T01:40:23.838Z,2.90
2022-10-05T01:43:01.941Z,2.80
2022-10-05T01:46:10.919Z,3.00
2022-10-05T01:49:12.354Z,2.80
2022-10-05T01:51:59.333Z,2.90
2022-10-05T01:55:03.768Z,3.00
2022-10-05T01:58:01.918Z,2.90
2022-10-05T02:00:41.123Z,2.70
2022-10-05T02:03:30.739Z,2.80
2022-10-05T02:06:28.171Z,3.10
2022-10-05T02:09:08.765Z,2.80
2022-10-05T02:11:40.959Z,2.80
2022-10-05T02:14:15.868Z,2.80
2022-10-05T02:19:40.176Z,2.70
2022-10-05T02:22:39.889Z,3.10
2022-10-05T02:25:25.007Z,2.90
2022-10-05T02:28:20.590Z,2.80
2022-10-05T02:31:38.406Z,3.10
2022-10-05T02:34:26.012Z,2.80
2022-10-05T02:37:17.289Z,2.90
2022-10-05T02:40:04.994Z,3.30
2022-10-05T02:43:20.317Z,3.00
2022-10-05T02:46:15.512Z,2.50
2022-10-05T02:49:15.803Z,3.20
2022-10-05T02:51:43.657Z,2.70
2022-10-05T02:54:44.390Z,2.80
2022-10-05T02:57:40.336Z,3.00
2022-10-05T03:00:19.568Z,3.00
2022-10-05T03:03:10.595Z,3.00
2022-10-05T03:05:53.804Z,3.00
2022-10-05T03:08:39.405Z,3.20
2022-10-05T03:11:40.740Z,2.90
2022-10-05T03:14:22.750Z,2.80
2022-10-05T03:17:16.717Z,2.90
2022-10-05T03:20:23.187Z,3.20
2022-10-05T03:23:02.927Z,2.90
2022-10-05T03:25:53.646Z,3.30
2022-10-05T03:28:44.446Z,3.00
2022-10-05T03:31:54.085Z,2.90
2022-10-05T03:34:36.441Z,2.90
2022-10-05T03:37:48.142Z,3.00
2022-10-05T03:40:38.934Z,3.00
2022-10-05T03:43:19.233Z,2.80
2022-10-05T03:46:19.295Z,2.80
2022-10-05T03:49:25.495Z,3.00
2022-10-05T03:52:10.133Z,3.00
2022-10-05T03:57:28.490Z,2.80
2022-10-05T04:00:02.888Z,2.90
2022-10-05T04:03:03.549Z,3.30
2022-10-05T04:05:53.747Z,3.10
2022-10-05T04:08:47.868Z,3.00
2022-10-05T04:14:07.559Z,3.00
2022-10-05T04:16:45.257Z,3.10
2022-10-05T04:19:44.451Z,3.20
2022-10-05T04:22:39.192Z,2.90
2022-10-05T04:25:39.714Z,3.30
2022-10-05T04:28:38.443Z,3.40
2022-10-05T04:31:23.550Z,3.10
2022-10-05T04:36:57.715Z,3.10
2022-10-05T04:40:24.563Z,3.20
2022-10-05T04:43:39.074Z,3.10
2022-10-05T04:46:38.873Z,3.30
2022-10-05T04:49:25.569Z,2.70
2022-10-05T04:52:08.165Z,3.30
2022-10-05T04:55:14.016Z,3.20
2022-10-05T04:58:24.997Z,3.20
2022-10-05T05:01:14.842Z,3.30
2022-10-05T05:04:32.340Z,3.40
2022-10-05T05:07:43.183Z,3.20
2022-10-05T05:10:16.991Z,3.20
2022-10-05T05:13:12.919Z,3.60
2022-10-05T05:16:10.885Z,3.60
2022-10-05T05:19:11.627Z,4.30
2022-10-05T05:22:11.961Z,4.20
2022-10-05T05:25:20.461Z,4.30
2022-10-05T05:27:57.355Z,4.30
2022-10-05T05:30:44.554Z,4.60
2022-10-05T05:33:23.536Z,4.20
2022-10-05T05:36:24.401Z,4.40
2022-10-05T05:39:24.596Z,3.70
2022-10-05T05:42:11.583Z,4.30
2022-10-05T05:44:51.923Z,4.60
2022-10-05T05:47:38.187Z,4.30
2022-10-05T05:50:34.373Z,4.30
2022-10-05T05:53:39.410Z,4.10
2022-10-05T05:56:16.187Z,4.30
2022-10-05T05:59:10.028Z,4.00
2022-10-05T06:01:52.126Z,4.00
2022-10-05T06:04:41.491Z,4.30
2022-10-05T06:07:21.281Z,3.80
2022-10-05T06:10:14.355Z,3.80
2022-10-05T06:12:58.440Z,4.10
2022-10-05T06:15:44.995Z,4.30
2022-10-05T06:18:21.081Z,4.00
2022-10-05T06:21:03.781Z,4.00
2022-10-05T06:23:48.322Z,3.80
2022-10-05T06:26:35.001Z,4.00
2022-10-05T06:29:20.295Z,3.40
2022-10-05T06:32:12.147Z,3.40
2022-10-05T06:35:03.557Z,3.70
2022-10-05T06:37:56.613Z,3.40
2022-10-05T06:41:00.326Z,3.70
2022-10-05T06:44:10.888Z,3.10
2022-10-05T06:47:34.564Z,3.50
2022-10-05T06:50:43.297Z,3.00
2022-10-05T06:54:04.713Z,3.40
2022-10-05T06:56:44.227Z,3.70
2022-10-05T06:59:58.015Z,3.20
2022-10-05T07:02:34.538Z,3.40
2022-10-05T07:05:53.632Z,3.60
2022-10-05T07:08:50.144Z,2.90
2022-10-05T07:12:00.888Z,3.40
2022-10-05T07:15:13.327Z,3.10
2022-10-05T07:18:00.124Z,3.40
2022-10-05T07:21:04.079Z,3.30
2022-10-05T07:24:29.364Z,3.20
2022-10-05T07:27:21.311Z,3.10
2022-10-05T07:30:12.674Z,3.30
2022-10-05T07:33:13.384Z,3.40
2022-10-05T07:36:43.202Z,3.00
2022-10-05T07:39:42.019Z,3.10
2022-10-05T07:42:52.867Z,3.20
2022-10-05T07:46:03.004Z,3.50
2022-10-05T07:49:05.611Z,3.10
2022-10-05T07:51:45.356Z,3.10
2022-10-05T07:54:21.616Z,3.10
2022-10-05T07:57:02.182Z,3.30
2022-10-05T07:59:49.814Z,3.10
2022-10-05T08:02:43.047Z,3.20
2022-10-05T08:05:30.873Z,3.20
2022-10-05T08:08:24.044Z,2.90
2022-10-05T08:11:07.095Z,2.70
2022-10-05T08:13:47.733Z,2.80
2022-10-05T08:16:17.750Z,3.20
2022-10-05T08:19:02.155Z,3.00
2022-10-05T08:21:59.830Z,3.00
2022-10-05T08:24:38.959Z,2.90
2022-10-05T08:27:19.594Z,3.20
2022-10-05T08:30:02.514Z,2.90
2022-10-05T08:32:55.372Z,3.00
2022-10-05T08:35:41.164Z,3.00
2022-10-05T08:38:39.534Z,3.50
2022-10-05T08:41:16.517Z,2.90
2022-10-05T08:44:33.945Z,3.00
2022-10-05T08:48:01.821Z,3.00
2022-10-05T08:51:36.961Z,2.90
2022-10-05T08:54:46.999Z,2.60
2022-10-05T08:57:50.418Z,3.10
2022-10-05T09:00:20.971Z,3.00
2022-10-05T09:03:22.520Z,2.70
2022-10-05T09:06:43.828Z,2.80
2022-10-05T09:09:49.586Z,2.80
2022-10-05T09:12:40.423Z,2.80
2022-10-05T09:15:49.682Z,2.60
2022-10-05T09:19:09.186Z,2.50
2022-10-05T09:21:42.876Z,2.70
2022-10-05T09:24:47.628Z,2.80
2022-10-05T09:27:20.888Z,2.90
2022-10-05T09:30:06.620Z,2.60
2022-10-05T09:33:17.085Z,2.70
2022-10-05T09:36:26.386Z,2.80
2022-10-05T09:39:19.382Z,2.50
2022-10-05T09:41:56.707Z,2.60
2022-10-05T09:45:05.796Z,2.70
2022-10-05T09:48:14.834Z,2.60
2022-10-05T09:51:05.219Z,2.50
2022-10-05T09:53:55.073Z,2.80
2022-10-05T09:56:41.823Z,2.80
2022-10-05T09:59:42.354Z,2.40
2022-10-05T10:02:27.708Z,2.50
2022-10-05T10:05:34.903Z,2.70
2022-10-05T10:08:20.407Z,2.60
2022-10-05T10:11:05.063Z,2.50
2022-10-05T10:14:08.461Z,2.40
2022-10-05T10:17:12.904Z,2.40
2022-10-05T10:20:27.554Z,2.60
2022-10-05T10:23:46.208Z,2.80
2022-10-05T10:27:22.887Z,2.20
2022-10-05T10:30:37.758Z,2.30
2022-10-05T10:34:07.967Z,2.60
2022-10-05T10:37:06.269Z,2.90
2022-10-05T10:39:45.297Z,2.60
2022-10-05T10:42:36.585Z,2.70
2022-10-05T10:45:28.978Z,2.70
2022-10-05T10:48:09.931Z,3.00
2022-10-05T10:50:57.463Z,2.50
2022-10-05T10:53:38.133Z,2.50
2022-10-05T10:56:33.435Z,2.70
2022-10-05T10:59:41.792Z,2.60
2022-10-05T11:02:33.215Z,2.80
2022-10-05T11:05:18.290Z,2.70
2022-10-05T11:10:35.787Z,2.90
2022-10-05T11:13:52.402Z,3.10
2022-10-05T11:16:54.380Z,2.80
2022-10-05T11:19:59.232Z,2.80
2022-10-05T11:22:41.809Z,2.50
2022-10-05T11:25:45.515Z,2.60
2022-10-05T11:28:40.350Z,2.70
2022-10-05T11:31:20.649Z,2.40
2022-10-05T11:34:15.983Z,2.70
2022-10-05T11:37:39.352Z,2.80
2022-10-05T11:40:43.232Z,2.60
2022-10-05T11:43:32.536Z,2.80
2022-10-05T11:46:20.350Z,2.40
2022-10-05T11:49:15.839Z,2.80
2022-10-05T11:52:11.298Z,2.70
2022-10-05T11:58:11.965Z,2.70
2022-10-05T12:01:12.945Z,2.70
2022-10-05T12:03:53.463Z,2.90
2022-10-05T12:06:41.005Z,2.60
2022-10-05T12:10:02.142Z,2.80
2022-10-05T12:12:39.697Z,2.70
2022-10-05T12:15:39.029Z,3.20
2022-10-05T12:18:39.536Z,2.40
2022-10-05T12:21:16.816Z,2.30
2022-10-05T12:23:53.917Z,2.50
2022-10-05T12:26:58.021Z,2.50
2022-10-05T12:29:29.680Z,2.20
2022-10-05T12:32:43.755Z,2.40
2022-10-05T12:35:48.065Z,2.20
2022-10-05T12:38:19.209Z,2.10
2022-10-05T12:40:56.824Z,2.20
2022-10-05T12:43:57.219Z,2.00
2022-10-05T12:46:52.124Z,2.20
2022-10-05T12:50:07.761Z,2.40
2022-10-05T12:52:56.210Z,2.30
2022-10-05T12:55:48.096Z,2.00
2022-10-05T12:58:43.503Z,2.10
2022-10-05T13:01:41.625Z,2.20
2022-10-05T13:04:21.645Z,1.90
2022-10-05T13:07:23.782Z,2.00
2022-10-05T13:10:16.657Z,2.10
2022-10-05T13:13:25.180Z,2.10
2022-10-05T13:16:12.197Z,2.00
2022-10-05T13:18:54.706Z,2.10
2022-10-05T13:21:38.750Z,1.90
2022-10-05T13:24:24.845Z,1.90
2022-10-05T13:27:29.500Z,1.80
2022-10-05T13:30:04.751Z,1.80
2022-10-05T13:32:39.335Z,1.90
2022-10-05T13:35:33.008Z,1.90
2022-10-05T13:38:47.696Z,2.00
2022-10-05T13:41:20.493Z,1.80
2022-10-05T13:44:03.887Z,1.70
2022-10-05T13:46:43.061Z,1.90
2022-10-05T13:49:41.737Z,1.70
2022-10-05T13:52:42.289Z,1.70
2022-10-05T13:55:47.384Z,1.80
2022-10-05T13:58:25.698Z,1.90
2022-10-05T14:00:58.736Z,1.80
2022-10-05T14:03:35.952Z,1.60
2022-10-05T14:06:31.382Z,1.70
2022-10-05T14:09:00.693Z,1.60
2022-10-05T14:11:35.960Z,1.70
2022-10-05T14:14:10.392Z,1.70
2022-10-05T14:17:18.252Z,1.60
2022-10-05T14:19:51.242Z,1.60
2022-10-05T14:22:25.152Z,1.70
2022-10-05T14:25:14.053Z,1.70
2022-10-05T14:28:00.066Z,1.40
2022-10-05T14:30:31.885Z,1.70
2022-10-05T14:33:05.882Z,1.50
2022-10-05T14:35:51.657Z,1.50
2022-10-05T14:38:26.606Z,1.70
2022-10-05T14:41:22.431Z,1.40
2022-10-05T14:44:01.970Z,1.80
2022-10-05T14:46:33.124Z,1.30
2022-10-05T14:49:22.878Z,1.60
2022-10-05T14:51:53.486Z,1.60
2022-10-05T14:54:30.389Z,1.50
2022-10-05T14:57:15.670Z,1.60
2022-10-05T15:00:04.122Z,1.60
2022-10-05T15:02:53.789Z,1.50
2022-10-05T15:05:48.184Z,1.60
2022-10-05T15:08:45.946Z,1.60
2022-10-05T15:11:34.090Z,1.50
2022-10-05T15:14:12.712Z,1.50
2022-10-05T15:16:42.213Z,1.40
2022-10-05T15:19:26.464Z,1.60
2022-10-05T15:22:23.006Z,1.50
2022-10-05T15:24:50.753Z,1.50
2022-10-05T15:27:58.412Z,1.60
2022-10-05T15:30:27.493Z,1.50
2022-10-05T15:33:22.791Z,1.50
2022-10-05T15:39:34.906Z,1.60
2022-10-05T15:42:15.108Z,1.50
2022-10-05T15:45:21.259Z,1.60
2022-10-05T15:48:37.937Z,1.60
2022-10-05T15:51:50.989Z,1.60
2022-10-05T15:54:52.828Z,1.50
2022-10-05T15:58:08.950Z,1.60
2022-10-05T16:00:47.816Z,1.60
2022-10-05T16:03:51.350Z,1.50
2022-10-05T16:07:06.839Z,1.50
2022-10-05T16:09:57.142Z,1.70
2022-10-05T16:12:59.112Z,1.60
2022-10-05T16:15:53.749Z,1.60
2022-10-05T16:18:37.859Z,1.80
2022-10-05T16:21:32.225Z,1.70
2022-10-05T16:24:23.131Z,1.60
2022-10-05T16:27:03.730Z,1.80
2022-10-05T16:30:05.363Z,1.60
2022-10-05T16:33:02.205Z,1.50
2022-10-05T16:35:52.841Z,1.70
2022-10-05T16:38:42.479Z,1.70
2022-10-05T16:41:35.021Z,1.90
2022-10-05T16:44:24.750Z,1.70
2022-10-05T16:47:01.584Z,1.80
2022-10-05T16:49:55.459Z,1.80
2022-10-05T16:52:27.997Z,2.00
2022-10-05T16:55:07.600Z,1.90
2022-10-05T16:57:44.456Z,1.90
2022-10-05T17:00:21.436Z,2.20
2022-10-05T17:03:25.052Z,1.90
2022-10-05T17:06:10.530Z,2.10
2022-10-05T17:08:55.183Z,2.10
2022-10-05T17:11:42.504Z,2.10
2022-10-05T17:14:35.441Z,2.30
2022-10-05T17:17:44.281Z,2.10
2022-10-05T17:20:29.503Z,2.40
2022-10-05T17:23:18.430Z,2.20
2022-10-05T17:25:51.080Z,2.50
2022-10-05T17:28:18.922Z,2.20
2022-10-05T17:30:54.310Z,2.20
2022-10-05T17:33:27.914Z,2.70
2022-10-05T17:36:08.615Z,2.30
2022-10-05T17:39:12.323Z,2.60
2022-10-05T17:41:40.667Z,2.50
2022-10-05T17:44:19.492Z,2.30
2022-10-05T17:47:11.525Z,2.70
2022-10-05T17:50:17.545Z,2.80
2022-10-05T17:53:42.492Z,2.60
2022-10-05T17:56:11.008Z,2.60
2022-10-05T17:58:54.786Z,2.70
2022-10-05T18:01:40.907Z,2.50
2022-10-05T18:04:11.968Z,2.50
2022-10-05T18:07:05.016Z,3.00
2022-10-05T18:09:53.459Z,2.90
2022-10-05T18:12:21.585Z,2.90
2022-10-05T18:15:07.833Z,2.80
2022-10-05T18:18:01.510Z,2.90
2022-10-05T18:20:35.105Z,2.60
2022-10-05T18:23:06.054Z,2.80
2022-10-05T18:25:52.246Z,2.60
2022-10-05T18:28:52.999Z,2.90
2022-10-05T18:31:45.521Z,2.70
2022-10-05T18:35:07.772Z,3.00
2022-10-05T18:38:24.013Z,2.60
2022-10-05T18:41:18.144Z,2.60
2022-10-05T18:43:58.719Z,2.70
2022-10-05T18:46:49.453Z,2.60
2022-10-05T18:49:47.388Z,2.80
2022-10-05T18:52:30.552Z,2.80
2022-10-05T18:55:36.207Z,2.70
2022-10-05T18:58:38.334Z,2.50
2022-10-05T19:01:48.231Z,2.70
2022-10-05T19:04:44.935Z,3.00
2022-10-05T19:08:02.888Z,2.90
2022-10-05T19:10:55.375Z,2.70
2022-10-05T19:13:58.206Z,2.40
2022-10-05T19:16:54.756Z,2.70
2022-10-05T19:19:55.482Z,2.80
2022-10-05T19:23:04.108Z,2.60
2022-10-05T19:26:14.319Z,2.60
2022-10-05T19:28:44.839Z,2.80
2022-10-05T19:31:12.951Z,2.40
2022-10-05T19:34:20.295Z,2.50
2022-10-05T19:37:10.055Z,2.40
2022-10-05T19:39:49.789Z,2.70
2022-10-05T19:43:03.031Z,2.30
2022-10-05T19:45:41.722Z,2.40
2022-10-05T19:48:39.917Z,2.40
2022-10-05T19:51:27.402Z,2.40
2022-10-05T19:54:14.119Z,2.50
2022-10-05T19:56:52.904Z,2.90
2022-10-05T19:59:27.193Z,2.40
2022-10-05T20:01:58.615Z,2.50
2022-10-05T20:04:45.910Z,3.80
2022-10-05T20:07:17.671Z,3.80
2022-10-05T20:09:59.825Z,4.60
2022-10-05T20:12:55.991Z,4.90
2022-10-05T20:15:46.943Z,4.50
2022-10-05T20:19:06.446Z,4.30
2022-10-05T20:21:44.041Z,4.20
2022-10-05T20:24:25.893Z,4.20
2022-10-05T20:27:06.919Z,4.50
2022-10-05T20:29:40.197Z,4.10
2022-10-05T20:32:13.460Z,4.40
2022-10-05T20:34:45.037Z,3.90
2022-10-05T20:37:16.631Z,4.80
2022-10-05T20:39:45.290Z,4.10
2022-10-05T20:42:14.284Z,3.90
2022-10-05T20:44:42.375Z,4.20
2022-10-05T20:47:11.232Z,4.40
2022-10-05T20:49:44.497Z,4.10
2022-10-05T20:52:15.151Z,4.50
2022-10-05T20:54:43.391Z,4.00
2022-10-05T20:57:11.419Z,4.00
2022-10-05T20:59:39.772Z,4.10
2022-10-05T21:02:07.687Z,4.10
2022-10-05T21:04:42.890Z,3.90
2022-10-05T21:07:11.182Z,3.90
2022-10-05T21:09:41.010Z,3.90
2022-10-05T21:12:08.958Z,4.00
2022-10-05T21:14:38.269Z,3.90
2022-10-05T21:17:07.462Z,4.00
2022-10-05T21:19:39.630Z,4.00
2022-10-05T21:22:09.955Z,4.00
2022-10-05T21:24:40.945Z,3.90
2022-10-05T21:27:10.401Z,4.10
2022-10-05T21:29:41.073Z,3.90
2022-10-05T21:32:11.910Z,4.20
2022-10-05T21:34:41.650Z,3.80
2022-10-05T21:37:10.365Z,4.00
2022-10-05T21:39:38.337Z,4.00
2022-10-05T21:42:06.510Z,3.70
2022-10-05T21:44:34.324Z,4.00
2022-10-05T21:47:04.359Z,3.80
2022-10-05T21:49:32.977Z,3.80
2022-10-05T21:52:02.917Z,3.80
2022-10-05T21:54:32.922Z,3.60
2022-10-05T21:57:01.595Z,3.50
2022-10-05T21:59:34.664Z,3.90
2022-10-05T22:02:02.871Z,3.60
2022-10-05T22:04:30.829Z,3.50
2022-10-05T22:06:59.620Z,3.40
2022-10-05T22:09:27.509Z,3.50
2022-10-05T22:11:57.403Z,3.40
2022-10-05T22:14:25.465Z,3.50
2022-10-05T22:16:54.454Z,3.30
2022-10-05T22:19:22.490Z,3.70
2022-10-05T22:21:50.693Z,3.30
2022-10-05T22:24:18.976Z,3.20
2022-10-05T22:26:51.535Z,3.40
2022-10-05T22:29:20.728Z,3.50
2022-10-05T22:31:49.558Z,2.90
2022-10-05T22:34:18.492Z,3.20
2022-10-05T22:36:47.785Z,3.20
2022-10-05T22:39:17.147Z,3.10
2022-10-05T22:41:45.116Z,3.10
2022-10-05T22:44:13.087Z,3.00
2022-10-05T22:46:41.322Z,2.90
2022-10-05T22:49:09.910Z,3.20
2022-10-05T22:51:37.813Z,2.70
2022-10-05T22:54:06.613Z,2.80
2022-10-05T22:56:34.746Z,2.80
2022-10-05T22:59:02.756Z,2.60
2022-10-05T23:01:30.948Z,2.90
2022-10-05T23:03:58.973Z,3.20
2022-10-05T23:06:26.939Z,3.30
2022-10-05T23:08:55.490Z,2.70
2022-10-05T23:11:27.731Z,2.90
2022-10-05T23:13:57.635Z,2.80
2022-10-05T23:16:28.877Z,2.90
2022-10-05T23:18:57.667Z,2.90
2022-10-05T23:21:29.701Z,2.70
2022-10-05T23:23:57.802Z,2.90
2022-10-05T23:26:26.697Z,2.40
2022-10-05T23:28:54.765Z,2.70
2022-10-05T23:31:27.416Z,2.90
2022-10-05T23:33:56.389Z,2.70
2022-10-05T23:36:33.017Z,2.80
2022-10-05T23:39:01.184Z,2.90
2022-10-05T23:41:29.334Z,2.90
2022-10-05T23:43:57.326Z,2.90
2022-10-05T23:46:25.681Z,2.70
2022-10-05T23:48:53.675Z,2.60
2022-10-05T23:51:21.576Z,2.80
2022-10-05T23:53:49.624Z,2.90
2022-10-05T23:56:17.792Z,2.70
2022-10-05T23:58:45.759Z,3.00
